createdAt,value
2022-08-09T00:00:23.281Z,21.77
2022-08-09T00:02:52.405Z,21.75
2022-08-09T00:06:16.382Z,21.77
2022-08-09T00:08:31.524Z,21.72
2022-08-09T00:10:59.844Z,21.77
2022-08-09T00:13:28.467Z,21.67
2022-08-09T00:16:02.737Z,21.71
2022-08-09T00:18:34.872Z,21.66
2022-08-09T00:21:07.685Z,21.62
2022-08-09T00:23:58.311Z,21.59
2022-08-09T00:26:30.013Z,21.53
2022-08-09T00:29:01.699Z,21.46
2022-08-09T00:31:59.431Z,21.40
2022-08-09T00:34:19.725Z,21.33
2022-08-09T00:36:48.912Z,21.30
2022-08-09T00:40:08.937Z,21.16
2022-08-09T00:44:15.310Z,21.06
2022-08-09T00:44:57.675Z,21.06
2022-08-09T00:47:26.381Z,20.98
2022-08-09T00:50:01.333Z,20.97
2022-08-09T00:52:31.195Z,20.96
2022-08-09T00:55:04.436Z,20.94
2022-08-09T00:57:34.343Z,20.85
2022-08-09T01:00:22.149Z,20.94
2022-08-09T01:02:55.459Z,20.88
2022-08-09T01:05:46.403Z,20.82
2022-08-09T01:08:26.616Z,20.71
2022-08-09T01:11:08.560Z,20.71
2022-08-09T01:13:59.494Z,20.65
2022-08-09T01:16:47.049Z,20.57
2022-08-09T01:19:40.051Z,20.58
2022-08-09T01:22:37.655Z,20.47
2022-08-09T01:25:19.322Z,20.42
2022-08-09T01:27:54.245Z,20.35
2022-08-09T01:30:28.876Z,20.31
2022-08-09T01:33:10.100Z,20.33
2022-08-09T01:35:43.144Z,20.28
2022-08-09T01:38:16.444Z,20.27
2022-08-09T01:40:53.134Z,20.22
2022-08-09T01:43:50.925Z,20.16
2022-08-09T01:46:25.286Z,20.12
2022-08-09T01:49:00.238Z,20.07
2022-08-09T01:51:42.832Z,20.02
2022-08-09T01:54:14.716Z,19.94
2022-08-09T01:56:51.399Z,19.94
2022-08-09T01:59:23.422Z,19.89
2022-08-09T02:01:58.040Z,19.80
2022-08-09T02:04:28.990Z,19.83
2022-08-09T02:07:17.957Z,19.77
2022-08-09T02:10:05.170Z,19.80
2022-08-09T02:12:35.848Z,19.72
2022-08-09T02:15:08.239Z,19.74
2022-08-09T02:18:09.923Z,19.62
2022-08-09T02:20:34.062Z,19.60
2022-08-09T02:23:07.404Z,19.52
2022-08-09T02:25:42.731Z,19.52
2022-08-09T02:28:21.221Z,19.53
2022-08-09T02:30:59.561Z,19.52
2022-08-09T02:33:58.333Z,19.43
2022-08-09T02:36:27.847Z,19.43
2022-08-09T02:38:59.309Z,19.40
2022-08-09T02:41:33.674Z,19.36
2022-08-09T02:44:06.634Z,19.28
2022-08-09T02:46:45.220Z,19.27
2022-08-09T02:49:16.806Z,19.26
2022-08-09T02:51:48.514Z,19.24
2022-08-09T02:54:18.982Z,19.18
2022-08-09T02:56:51.543Z,19.16
2022-08-09T02:59:36.589Z,19.19
2022-08-09T03:02:12.248Z,19.19
2022-08-09T03:04:47.005Z,19.16
2022-08-09T03:07:20.103Z,19.12
2022-08-09T03:09:54.283Z,19.10
2022-08-09T03:12:27.069Z,19.09
2022-08-09T03:14:56.059Z,19.10
2022-08-09T03:17:27.199Z,19.06
2022-08-09T03:20:05.127Z,19.03
2022-08-09T03:22:44.641Z,19.04
2022-08-09T03:25:25.930Z,19.01
2022-08-09T03:28:05.093Z,18.99
2022-08-09T03:30:40.148Z,18.98
2022-08-09T03:33:18.880Z,18.98
2022-08-09T03:36:13.618Z,18.97
2022-08-09T03:38:41.815Z,18.93
2022-08-09T03:41:15.094Z,18.93
2022-08-09T03:44:03.441Z,18.92
2022-08-09T03:46:34.237Z,18.92
2022-08-09T03:49:07.991Z,18.91
2022-08-09T03:51:57.792Z,18.91
2022-08-09T03:54:31.270Z,18.92
2022-08-09T03:57:02.221Z,18.93
2022-08-09T03:59:52.875Z,18.93
2022-08-09T04:02:26.588Z,18.92
2022-08-09T04:04:58.693Z,18.90
2022-08-09T04:07:47.925Z,18.94
2022-08-09T04:10:20.421Z,19.00
2022-08-09T04:12:51.048Z,18.99
2022-08-09T04:15:50.384Z,18.95
2022-08-09T04:18:18.063Z,18.95
2022-08-09T04:20:48.945Z,19.06
2022-08-09T04:23:17.873Z,19.08
2022-08-09T04:25:53.075Z,19.12
2022-08-09T04:28:32.943Z,19.11
2022-08-09T04:31:07.636Z,19.14
2022-08-09T04:33:52.038Z,19.15
2022-08-09T04:36:27.968Z,19.18
2022-08-09T04:38:57.594Z,19.20
2022-08-09T04:41:32.881Z,19.18
2022-08-09T04:44:06.380Z,19.23
2022-08-09T04:46:56.735Z,19.23
2022-08-09T04:49:40.309Z,19.14
2022-08-09T04:52:27.321Z,19.17
2022-08-09T04:54:56.125Z,19.26
2022-08-09T04:57:25.172Z,19.29
2022-08-09T04:59:55.566Z,19.39
2022-08-09T05:02:27.080Z,19.33
2022-08-09T05:04:56.224Z,19.43
2022-08-09T05:07:29.326Z,19.44
2022-08-09T05:10:01.628Z,19.45
2022-08-09T05:12:31.185Z,19.49
2022-08-09T05:15:11.628Z,19.56
2022-08-09T05:18:55.041Z,19.60
2022-08-09T05:20:30.615Z,19.60
2022-08-09T05:23:54.786Z,19.68
2022-08-09T05:25:50.632Z,19.76
2022-08-09T05:28:20.130Z,19.81
2022-08-09T05:30:51.614Z,19.94
2022-08-09T05:33:26.382Z,20.06
2022-08-09T05:36:02.096Z,20.17
2022-08-09T05:38:31.467Z,20.33
2022-08-09T05:40:59.529Z,20.39
2022-08-09T05:43:31.736Z,20.55
2022-08-09T05:45:59.884Z,20.70
2022-08-09T05:48:33.154Z,20.80
2022-08-09T05:51:43.141Z,20.94
2022-08-09T05:53:57.641Z,21.00
2022-08-09T05:56:28.018Z,21.14
2022-08-09T05:58:58.559Z,21.26
2022-08-09T06:01:33.703Z,21.38
2022-08-09T06:04:12.252Z,21.45
2022-08-09T06:06:45.242Z,21.53
2022-08-09T06:09:41.127Z,21.66
2022-08-09T06:12:08.629Z,21.87
2022-08-09T06:14:37.267Z,21.90
2022-08-09T06:17:09.404Z,22.07
2022-08-09T06:19:38.724Z,22.22
2022-08-09T06:22:15.220Z,22.37
2022-08-09T06:24:45.162Z,22.45
2022-08-09T06:27:15.577Z,22.52
2022-08-09T06:29:47.973Z,22.63
2022-08-09T06:33:13.046Z,22.78
2022-08-09T06:35:15.172Z,22.97
2022-08-09T06:37:52.859Z,23.16
2022-08-09T06:40:33.371Z,23.28
2022-08-09T06:43:02.152Z,23.37
2022-08-09T06:46:07.589Z,23.47
2022-08-09T06:48:30.739Z,23.58
2022-08-09T06:50:59.937Z,23.68
2022-08-09T06:53:33.164Z,23.74
2022-08-09T06:56:09.058Z,23.77
2022-08-09T07:00:47.193Z,23.87
2022-08-09T07:01:27.546Z,23.97
2022-08-09T07:04:04.400Z,24.07
2022-08-09T07:06:33.039Z,24.23
2022-08-09T07:09:02.534Z,24.37
2022-08-09T07:11:34.203Z,24.31
2022-08-09T07:14:17.885Z,24.47
2022-08-09T07:16:58.330Z,24.51
2022-08-09T07:19:27.287Z,24.60
2022-08-09T07:21:59.089Z,24.69
2022-08-09T07:24:40.117Z,24.80
2022-08-09T07:27:27.194Z,24.91
2022-08-09T07:30:02.560Z,25.14
2022-08-09T07:32:34.295Z,25.26
2022-08-09T07:35:08.154Z,25.46
2022-08-09T07:37:43.812Z,25.67
2022-08-09T07:40:17.070Z,25.74
2022-08-09T07:42:55.742Z,25.95
2022-08-09T07:45:40.118Z,26.04
2022-08-09T07:48:25.742Z,26.13
2022-08-09T07:51:10.172Z,26.36
2022-08-09T07:54:05.929Z,26.56
2022-08-09T07:56:36.984Z,26.84
2022-08-09T07:59:12.599Z,26.99
2022-08-09T08:01:52.828Z,27.15
2022-08-09T08:04:25.499Z,27.38
2022-08-09T08:07:09.483Z,27.66
2022-08-09T08:09:53.616Z,27.67
2022-08-09T08:12:35.903Z,27.64
2022-08-09T08:15:07.713Z,27.84
2022-08-09T08:17:53.437Z,27.91
2022-08-09T08:20:29.124Z,27.97
2022-08-09T08:23:06.536Z,27.95
2022-08-09T08:25:46.501Z,28.23
2022-08-09T08:28:18.043Z,28.41
2022-08-09T08:30:55.893Z,28.34
2022-08-09T08:33:24.735Z,28.39
2022-08-09T08:36:00.137Z,28.49
2022-08-09T08:38:29.629Z,28.53
2022-08-09T08:40:58.762Z,28.38
2022-08-09T08:43:27.677Z,28.27
2022-08-09T08:46:31.789Z,28.42
2022-08-09T08:48:54.107Z,28.31
2022-08-09T08:51:23.471Z,28.52
2022-08-09T08:54:03.320Z,28.68
2022-08-09T08:56:36.002Z,28.82
2022-08-09T08:59:19.372Z,28.92
2022-08-09T09:01:52.971Z,29.31
2022-08-09T09:04:29.740Z,29.56
2022-08-09T09:07:04.110Z,29.95
2022-08-09T09:10:02.269Z,30.19
2022-08-09T09:12:29.127Z,30.18
2022-08-09T09:15:00.263Z,30.37
2022-08-09T09:17:30.775Z,30.34
2022-08-09T09:20:16.882Z,30.62
2022-08-09T09:22:52.879Z,30.46
2022-08-09T09:26:03.807Z,30.60
2022-08-09T09:29:02.113Z,30.62
2022-08-09T09:32:05.971Z,30.80
2022-08-09T09:34:15.364Z,31.05
2022-08-09T09:36:54.232Z,30.74
2022-08-09T09:39:25.604Z,30.87
2022-08-09T09:42:23.355Z,31.08
2022-08-09T09:44:57.562Z,31.12
2022-08-09T09:47:26.522Z,31.30
2022-08-09T09:50:13.598Z,31.50
2022-08-09T09:52:53.687Z,31.58
2022-08-09T09:55:31.238Z,31.58
2022-08-09T09:58:19.085Z,31.84
2022-08-09T10:00:54.520Z,31.96
2022-08-09T10:03:44.831Z,32.02
2022-08-09T10:06:27.390Z,32.01
2022-08-09T10:09:02.661Z,32.11
2022-08-09T10:11:58.972Z,32.29
2022-08-09T10:14:30.952Z,32.52
2022-08-09T10:17:55.180Z,32.59
2022-08-09T10:19:59.933Z,32.78
2022-08-09T10:22:34.632Z,32.97
2022-08-09T10:25:11.180Z,33.11
2022-08-09T10:27:56.355Z,33.27
2022-08-09T10:34:07.911Z,33.42
2022-08-09T10:36:05.116Z,33.32
2022-08-09T10:38:56.051Z,33.52
2022-08-09T10:41:23.076Z,33.68
2022-08-09T10:43:59.444Z,33.86
2022-08-09T10:48:12.164Z,34.04
2022-08-09T10:50:05.644Z,34.08
2022-08-09T10:53:04.074Z,34.24
2022-08-09T10:55:58.602Z,34.37
2022-08-09T10:58:33.504Z,34.58
2022-08-09T11:03:15.454Z,34.66
2022-08-09T11:04:19.422Z,34.79
2022-08-09T11:07:27.150Z,34.82
2022-08-09T11:10:15.828Z,34.82
2022-08-09T11:13:49.328Z,34.82
2022-08-09T11:16:33.811Z,34.97
2022-08-09T11:19:08.000Z,34.95
2022-08-09T11:22:10.204Z,34.76
2022-08-09T11:25:08.945Z,34.91
2022-08-09T11:28:05.434Z,35.18
2022-08-09T11:30:37.738Z,35.37
2022-08-09T11:33:12.915Z,35.37
2022-08-09T11:35:49.698Z,35.03
2022-08-09T11:38:28.850Z,34.59
2022-08-09T11:41:05.258Z,34.22
2022-08-09T11:43:41.465Z,34.11
2022-08-09T11:46:11.172Z,33.87
2022-08-09T11:48:50.066Z,33.58
2022-08-09T11:52:49.501Z,33.50
2022-08-09T11:54:28.965Z,33.47
2022-08-09T11:57:47.841Z,33.51
2022-08-09T12:00:29.426Z,33.52
2022-08-09T12:03:50.715Z,33.60
2022-08-09T12:05:52.063Z,33.91
2022-08-09T12:08:23.564Z,34.24
2022-08-09T12:10:55.901Z,34.78
2022-08-09T12:14:09.347Z,34.96
2022-08-09T12:16:37.447Z,34.77
2022-08-09T12:19:09.952Z,34.57
2022-08-09T12:21:50.225Z,34.32
2022-08-09T12:24:24.500Z,34.33
2022-08-09T12:29:11.408Z,34.18
2022-08-09T12:30:01.946Z,34.10
2022-08-09T12:32:42.825Z,34.04
2022-08-09T12:35:19.147Z,33.91
2022-08-09T12:37:51.971Z,33.83
2022-08-09T12:40:24.456Z,33.97
2022-08-09T12:42:53.248Z,34.01
2022-08-09T12:45:32.604Z,34.18
2022-08-09T12:48:03.507Z,34.44
2022-08-09T12:50:35.612Z,34.59
2022-08-09T12:53:18.053Z,34.44
2022-08-09T12:56:15.703Z,34.40
2022-08-09T12:58:43.011Z,34.29
2022-08-09T13:01:23.117Z,34.30
2022-08-09T13:04:01.898Z,34.25
2022-08-09T13:06:35.655Z,34.26
2022-08-09T13:09:07.137Z,34.14
2022-08-09T13:11:39.593Z,34.18
2022-08-09T13:14:43.838Z,34.50
2022-08-09T13:17:08.530Z,35.10
2022-08-09T13:20:07.541Z,35.55
2022-08-09T13:22:38.239Z,35.91
2022-08-09T13:25:16.463Z,36.45
2022-08-09T13:27:55.289Z,36.54
2022-08-09T13:32:12.203Z,36.69
2022-08-09T13:33:23.672Z,37.03
2022-08-09T13:36:37.553Z,37.27
2022-08-09T13:38:55.001Z,37.36
2022-08-09T13:41:58.144Z,37.50
2022-08-09T13:44:16.443Z,37.17
2022-08-09T13:47:27.490Z,37.11
2022-08-09T13:49:39.490Z,37.31
2022-08-09T13:52:22.095Z,37.27
2022-08-09T13:55:00.156Z,37.04
2022-08-09T13:57:36.538Z,36.71
2022-08-09T14:00:15.848Z,36.38
2022-08-09T14:03:04.013Z,35.95
2022-08-09T14:06:01.185Z,35.70
2022-08-09T14:08:24.753Z,35.48
2022-08-09T14:10:57.343Z,35.37
2022-08-09T14:13:28.107Z,35.40
2022-08-09T14:16:16.078Z,35.37
2022-08-09T14:18:49.630Z,35.73
2022-08-09T14:21:20.373Z,36.17
2022-08-09T14:23:53.885Z,36.44
2022-08-09T14:26:30.161Z,36.74
2022-08-09T14:29:03.136Z,36.70
2022-08-09T14:31:36.192Z,36.90
2022-08-09T14:34:27.295Z,36.71
2022-08-09T14:36:59.967Z,36.19
2022-08-09T14:39:45.260Z,35.90
2022-08-09T14:42:40.521Z,35.48
2022-08-09T14:46:58.274Z,35.00
2022-08-09T14:47:58.297Z,34.73
2022-08-09T14:50:30.379Z,34.79
2022-08-09T14:52:59.165Z,34.64
2022-08-09T14:55:32.251Z,34.79
2022-08-09T14:58:04.788Z,34.93
2022-08-09T15:00:36.385Z,35.29
2022-08-09T15:03:06.798Z,35.58
2022-08-09T15:05:36.480Z,35.99
2022-08-09T15:08:05.143Z,36.18
2022-08-09T15:10:34.917Z,36.15
2022-08-09T15:13:08.686Z,36.07
2022-08-09T15:15:38.940Z,35.67
2022-08-09T15:18:14.151Z,35.36
2022-08-09T15:21:56.915Z,34.98
2022-08-09T15:24:03.723Z,34.69
2022-08-09T15:26:31.769Z,34.83
2022-08-09T15:29:04.764Z,36.07
2022-08-09T15:31:40.678Z,35.92
2022-08-09T15:34:32.123Z,35.93
2022-08-09T15:37:00.069Z,36.93
2022-08-09T15:39:43.708Z,38.05
2022-08-09T15:42:19.974Z,38.87
2022-08-09T15:44:51.719Z,39.46
2022-08-09T15:47:22.602Z,39.78
2022-08-09T15:50:04.511Z,40.01
2022-08-09T15:52:35.344Z,39.82
2022-08-09T15:55:05.524Z,38.62
2022-08-09T15:57:43.858Z,37.16
2022-08-09T16:00:24.447Z,36.40
2022-08-09T16:02:56.443Z,35.61
2022-08-09T16:05:47.840Z,35.28
2022-08-09T16:08:30.957Z,34.90
2022-08-09T16:11:00.259Z,35.30
2022-08-09T16:14:04.596Z,35.56
2022-08-09T16:16:19.842Z,36.04
2022-08-09T16:18:48.204Z,36.36
2022-08-09T16:21:25.076Z,36.80
2022-08-09T16:23:58.374Z,37.04
2022-08-09T16:26:34.871Z,36.52
2022-08-09T16:29:10.621Z,36.12
2022-08-09T16:32:18.258Z,36.03
2022-08-09T16:34:56.011Z,35.90
2022-08-09T16:37:20.370Z,35.78
2022-08-09T16:40:10.116Z,35.41
2022-08-09T16:42:38.693Z,35.26
2022-08-09T16:45:14.785Z,35.27
2022-08-09T16:48:43.054Z,35.51
2022-08-09T16:50:38.186Z,35.70
2022-08-09T16:53:08.913Z,35.98
2022-08-09T16:55:58.715Z,36.44
2022-08-09T16:58:27.944Z,37.06
2022-08-09T17:00:56.168Z,37.57
2022-08-09T17:03:25.529Z,37.91
2022-08-09T17:06:03.422Z,37.64
2022-08-09T17:08:45.725Z,36.99
2022-08-09T17:11:40.167Z,36.61
2022-08-09T17:14:26.238Z,36.16
2022-08-09T17:16:59.826Z,35.74
2022-08-09T17:20:04.969Z,35.88
2022-08-09T17:22:25.195Z,36.49
2022-08-09T17:25:03.665Z,36.39
2022-08-09T17:27:33.333Z,36.54
2022-08-09T17:30:06.625Z,37.02
2022-08-09T17:32:38.590Z,37.36
2022-08-09T17:35:12.419Z,37.87
2022-08-09T17:38:12.141Z,38.33
2022-08-09T17:40:33.973Z,38.43
2022-08-09T17:43:10.567Z,37.74
2022-08-09T17:46:03.416Z,36.73
2022-08-09T17:48:35.085Z,35.89
2022-08-09T17:51:18.181Z,34.99
2022-08-09T17:53:51.846Z,34.53
2022-08-09T17:56:27.620Z,34.13
2022-08-09T17:59:03.404Z,33.72
2022-08-09T18:02:03.814Z,33.25
2022-08-09T18:04:28.394Z,32.91
2022-08-09T18:06:58.828Z,32.50
2022-08-09T18:09:40.593Z,32.29
2022-08-09T18:12:17.115Z,32.02
2022-08-09T18:14:49.641Z,31.84
2022-08-09T18:18:02.628Z,31.70
2022-08-09T18:20:55.073Z,31.52
2022-08-09T18:22:57.351Z,31.33
2022-08-09T18:25:51.021Z,31.14
2022-08-09T18:28:21.434Z,31.00
2022-08-09T18:31:04.753Z,30.80
2022-08-09T18:33:34.262Z,30.61
2022-08-09T18:36:02.351Z,30.47
2022-08-09T18:38:31.556Z,30.31
2022-08-09T18:40:59.640Z,30.10
2022-08-09T18:43:28.016Z,29.93
2022-08-09T18:46:47.437Z,29.81
2022-08-09T18:48:52.838Z,29.67
2022-08-09T18:51:21.128Z,29.52
2022-08-09T18:54:16.573Z,29.36
2022-08-09T18:56:53.970Z,29.20
2022-08-09T18:59:23.298Z,29.06
2022-08-09T19:01:54.993Z,28.89
2022-08-09T19:04:24.873Z,28.71
2022-08-09T19:07:05.456Z,28.57
2022-08-09T19:10:14.868Z,28.39
2022-08-09T19:12:23.357Z,28.25
2022-08-09T19:14:51.754Z,28.11
2022-08-09T19:17:19.915Z,27.97
2022-08-09T19:19:49.446Z,27.86
2022-08-09T19:22:26.669Z,27.76
2022-08-09T19:25:09.727Z,27.63
2022-08-09T19:27:44.068Z,27.54
2022-08-09T19:30:22.116Z,27.41
2022-08-09T19:32:56.597Z,27.31
2022-08-09T19:35:26.665Z,27.24
2022-08-09T19:37:57.420Z,27.17
2022-08-09T19:40:34.139Z,27.09
2022-08-09T19:43:09.954Z,27.00
2022-08-09T19:45:44.523Z,26.88
2022-08-09T19:48:15.170Z,26.84
2022-08-09T19:51:03.358Z,26.74
2022-08-09T19:53:45.259Z,26.63
2022-08-09T19:56:17.012Z,26.52
2022-08-09T19:59:40.051Z,26.40
2022-08-09T20:01:52.395Z,26.23
2022-08-09T20:04:37.336Z,26.15
2022-08-09T20:07:12.210Z,26.05
2022-08-09T20:09:49.579Z,25.99
2022-08-09T20:12:27.220Z,25.94
2022-08-09T20:16:31.596Z,25.91
2022-08-09T20:17:59.093Z,25.89
2022-08-09T20:20:27.347Z,25.81
2022-08-09T20:22:56.593Z,25.74
2022-08-09T20:25:25.370Z,25.62
2022-08-09T20:27:55.755Z,25.49
2022-08-09T20:30:25.094Z,25.40
2022-08-09T20:32:53.941Z,25.31
2022-08-09T20:35:22.295Z,25.26
2022-08-09T20:38:19.324Z,25.16
2022-08-09T20:40:41.145Z,25.04
2022-08-09T20:43:24.314Z,24.92
2022-08-09T20:45:59.049Z,24.81
2022-08-09T20:48:31.506Z,24.73
2022-08-09T20:51:00.893Z,24.67
2022-08-09T20:53:37.318Z,24.66
2022-08-09T20:56:09.412Z,24.63
2022-08-09T20:58:54.483Z,24.58
2022-08-09T21:01:35.146Z,24.55
2022-08-09T21:05:55.005Z,24.48
2022-08-09T21:07:11.834Z,24.44
2022-08-09T21:09:55.474Z,24.36
2022-08-09T21:15:16.013Z,24.29
2022-08-09T21:18:23.529Z,24.26
2022-08-09T21:20:35.565Z,24.22
2022-08-09T21:23:04.369Z,24.17
2022-08-09T21:25:56.245Z,24.14
2022-08-09T21:28:35.254Z,24.12
2022-08-09T21:31:17.368Z,24.09
2022-08-09T21:33:51.558Z,24.05
2022-08-09T21:36:23.292Z,24.02
2022-08-09T21:38:57.214Z,24.00
2022-08-09T21:42:00.356Z,23.98
2022-08-09T21:44:15.275Z,23.92
2022-08-09T21:47:01.963Z,23.87
2022-08-09T21:49:40.218Z,23.82
2022-08-09T21:52:16.297Z,23.75
2022-08-09T21:54:50.685Z,23.75
2022-08-09T21:57:39.096Z,23.75
2022-08-09T22:00:17.841Z,23.74
2022-08-09T22:02:58.247Z,23.69
2022-08-09T22:05:35.728Z,23.61
2022-08-09T22:08:06.560Z,23.57
2022-08-09T22:10:35.918Z,23.46
2022-08-09T22:13:25.489Z,23.39
2022-08-09T22:16:03.532Z,23.35
2022-08-09T22:18:33.454Z,23.33
2022-08-09T22:21:01.527Z,23.28
2022-08-09T22:23:35.490Z,23.21
2022-08-09T22:26:12.735Z,23.20
2022-08-09T22:28:54.150Z,23.17
2022-08-09T22:31:22.556Z,23.10
2022-08-09T22:33:55.335Z,23.02
2022-08-09T22:36:24.069Z,23.05
2022-08-09T22:38:51.929Z,23.01
2022-08-09T22:41:20.220Z,23.06
2022-08-09T22:44:03.727Z,23.12
2022-08-09T22:48:10.776Z,23.09
2022-08-09T22:49:23.472Z,23.10
2022-08-09T22:51:57.181Z,23.07
2022-08-09T22:54:27.456Z,23.08
2022-08-09T22:56:57.085Z,23.06
2022-08-09T22:59:58.289Z,23.01
2022-08-09T23:02:15.615Z,23.04
2022-08-09T23:04:54.295Z,22.98
2022-08-09T23:08:23.017Z,22.88
2022-08-09T23:10:29.688Z,22.83
2022-08-09T23:13:01.002Z,22.75
2022-08-09T23:15:30.511Z,22.73
2022-08-09T23:17:58.656Z,22.73
2022-08-09T23:20:28.771Z,22.71
2022-08-09T23:22:57.115Z,22.68
2022-08-09T23:25:25.014Z,22.68
2022-08-09T23:28:14.246Z,22.66
2022-08-09T23:30:41.207Z,22.62
2022-08-09T23:33:19.654Z,22.53
2022-08-09T23:36:05.683Z,22.51
2022-08-09T23:38:35.919Z,22.44
2022-08-09T23:41:27.870Z,22.37
2022-08-09T23:43:58.396Z,22.32
2022-08-09T23:46:26.895Z,22.28
2022-08-09T23:48:54.746Z,22.26
2022-08-09T23:51:23.952Z,22.19
2022-08-09T23:53:52.514Z,22.12
2022-08-09T23:56:52.324Z,22.08
2022-08-09T23:59:11.963Z,22.07
